createdAt,value
2017-09-22T00:00:33.493Z,78.90
2017-09-22T00:03:01.385Z,80.80
2017-09-22T00:05:38.669Z,77.40
2017-09-22T00:08:06.578Z,77.40
2017-09-22T00:10:34.534Z,76.10
2017-09-22T00:13:02.481Z,77.70
2017-09-22T00:15:30.419Z,76.40
2017-09-22T00:17:58.356Z,78.00
2017-09-22T00:20:26.291Z,76.90
2017-09-22T00:22:54.185Z,78.60
2017-09-22T00:25:22.145Z,76.50
2017-09-22T00:27:50.037Z,79.70
2017-09-22T00:30:17.939Z,76.20
2017-09-22T00:32:45.898Z,78.20
2017-09-22T00:35:14.075Z,79.90
2017-09-22T00:37:42.030Z,79.60
2017-09-22T00:40:09.978Z,79.00
2017-09-22T00:42:37.922Z,77.30
2017-09-22T00:45:06.584Z,75.90
2017-09-22T00:47:34.536Z,75.80
2017-09-22T00:50:02.437Z,78.60
2017-09-22T00:52:31.161Z,78.10
2017-09-22T00:54:59.065Z,78.60
2017-09-22T00:57:27.029Z,77.50
2017-09-22T00:59:54.920Z,79.00
2017-09-22T01:02:22.924Z,79.70
2017-09-22T01:04:50.856Z,78.60
2017-09-22T01:07:18.804Z,79.60
2017-09-22T01:09:46.706Z,78.10
2017-09-22T01:12:14.637Z,77.60
2017-09-22T01:14:42.514Z,76.10
2017-09-22T01:17:10.449Z,76.90
2017-09-22T01:19:38.362Z,78.10
2017-09-22T01:22:06.301Z,75.80
2017-09-22T01:24:34.186Z,77.30
2017-09-22T01:27:02.145Z,78.10
2017-09-22T01:29:30.272Z,78.40
2017-09-22T01:31:58.212Z,79.00
2017-09-22T01:34:34.119Z,78.40
2017-09-22T01:37:02.066Z,77.00
2017-09-22T01:39:29.967Z,76.40
2017-09-22T01:41:57.870Z,77.30
2017-09-22T01:44:25.925Z,76.40
2017-09-22T01:46:53.815Z,77.70
2017-09-22T01:49:21.752Z,76.10
2017-09-22T01:51:50.055Z,78.60
2017-09-22T01:54:18.019Z,78.10
2017-09-22T01:56:45.909Z,78.50
2017-09-22T01:59:13.849Z,79.00
2017-09-22T02:01:41.737Z,75.90
2017-09-22T02:04:11.725Z,76.70
2017-09-22T02:06:39.647Z,75.80
2017-09-22T02:09:07.605Z,77.90
2017-09-22T02:11:35.497Z,76.70
2017-09-22T02:14:03.457Z,77.20
2017-09-22T02:16:31.352Z,79.80
2017-09-22T02:18:59.284Z,76.80
2017-09-22T02:21:27.193Z,78.20
2017-09-22T02:23:55.139Z,76.30
2017-09-22T02:26:23.025Z,77.60
2017-09-22T02:28:51.001Z,79.30
2017-09-22T02:31:18.890Z,79.30
2017-09-22T02:33:47.063Z,77.80
2017-09-22T02:36:14.958Z,77.50
2017-09-22T02:38:42.902Z,76.70
2017-09-22T02:41:10.802Z,79.20
2017-09-22T02:43:38.749Z,76.70
2017-09-22T02:46:06.644Z,78.70
2017-09-22T02:48:34.562Z,78.40
2017-09-22T02:51:02.504Z,78.60
2017-09-22T02:53:30.408Z,77.80
2017-09-22T02:55:58.354Z,78.90
2017-09-22T02:58:26.244Z,77.50
2017-09-22T03:00:54.246Z,79.40
2017-09-22T03:03:23.293Z,76.40
2017-09-22T03:05:52.019Z,75.60
2017-09-22T03:08:19.924Z,75.60
2017-09-22T03:10:47.869Z,77.90
2017-09-22T03:13:15.754Z,80.10
2017-09-22T03:15:43.692Z,77.60
2017-09-22T03:18:11.593Z,76.10
2017-09-22T03:20:39.556Z,80.10
2017-09-22T03:23:07.453Z,77.40
2017-09-22T03:25:35.409Z,78.90
2017-09-22T03:28:03.287Z,77.50
2017-09-22T03:30:31.239Z,78.90
2017-09-22T03:32:59.134Z,79.50
2017-09-22T03:35:27.081Z,79.20
2017-09-22T03:37:55.014Z,75.80
2017-09-22T03:40:22.960Z,78.20
2017-09-22T03:42:50.876Z,75.80
2017-09-22T03:45:18.843Z,76.30
2017-09-22T03:47:46.754Z,76.70
2017-09-22T03:50:15.392Z,78.00
2017-09-22T03:52:43.335Z,78.00
2017-09-22T03:55:17.639Z,77.30
2017-09-22T03:57:45.571Z,80.10
2017-09-22T04:00:13.460Z,77.00
2017-09-22T04:02:41.394Z,80.00
2017-09-22T04:05:09.287Z,76.50
2017-09-22T04:07:37.224Z,76.40
2017-09-22T04:10:05.169Z,76.80
2017-09-22T04:12:33.113Z,76.20
2017-09-22T04:15:01.019Z,78.50
2017-09-22T04:17:28.969Z,76.30
2017-09-22T04:19:56.878Z,80.60
2017-09-22T04:22:24.823Z,76.80
2017-09-22T04:24:53.972Z,79.60
2017-09-22T04:27:21.981Z,77.50
2017-09-22T04:29:49.961Z,79.20
2017-09-22T04:32:17.909Z,77.40
2017-09-22T04:34:45.809Z,78.10
2017-09-22T04:37:13.749Z,75.80
2017-09-22T04:39:41.660Z,79.90
2017-09-22T04:42:09.609Z,79.60
2017-09-22T04:44:37.500Z,78.80
2017-09-22T04:47:05.457Z,76.40
2017-09-22T04:49:33.350Z,77.60
2017-09-22T04:52:01.297Z,79.70
2017-09-22T04:54:29.322Z,79.70
2017-09-22T04:56:58.041Z,79.00
2017-09-22T04:59:25.945Z,78.90
2017-09-22T05:01:53.871Z,80.40
2017-09-22T05:04:21.901Z,76.60
2017-09-22T05:06:49.845Z,76.50
2017-09-22T05:09:17.786Z,77.00
2017-09-22T05:11:45.683Z,76.70
2017-09-22T05:14:13.642Z,78.10
2017-09-22T05:16:41.546Z,79.30
2017-09-22T05:19:09.515Z,79.80
2017-09-22T05:21:37.409Z,79.20
2017-09-22T05:24:09.306Z,77.80
2017-09-22T05:26:37.216Z,75.70
2017-09-22T05:29:05.164Z,76.60
2017-09-22T05:31:33.071Z,77.90
2017-09-22T05:34:01.035Z,77.30
2017-09-22T05:36:28.928Z,79.80
2017-09-22T05:38:57.026Z,78.70
2017-09-22T05:41:24.977Z,78.10
2017-09-22T05:43:52.950Z,76.60
2017-09-22T05:46:20.873Z,77.70
2017-09-22T05:48:48.968Z,76.60
2017-09-22T05:51:20.219Z,77.30
2017-09-22T05:53:49.005Z,78.30
2017-09-22T05:56:16.902Z,78.30
2017-09-22T05:58:44.836Z,78.30
2017-09-22T06:01:12.723Z,78.90
2017-09-22T06:03:40.661Z,76.10
2017-09-22T06:06:08.563Z,76.70
2017-09-22T06:08:36.453Z,77.80
2017-09-22T06:11:04.384Z,77.10
2017-09-22T06:13:35.597Z,76.70
2017-09-22T06:16:03.524Z,73.80
2017-09-22T06:18:31.401Z,73.60
2017-09-22T06:21:00.117Z,74.80
2017-09-22T06:23:28.002Z,74.80
2017-09-22T06:25:55.936Z,73.80
2017-09-22T06:28:23.815Z,73.80
2017-09-22T06:30:51.754Z,72.90
2017-09-22T06:33:19.647Z,70.10
2017-09-22T06:35:47.584Z,69.80
2017-09-22T06:38:15.494Z,69.90
2017-09-22T06:40:43.430Z,68.90
2017-09-22T06:43:11.313Z,68.80
2017-09-22T06:45:39.252Z,66.20
2017-09-22T06:48:07.162Z,65.30
2017-09-22T06:50:35.135Z,66.10
2017-09-22T06:53:03.053Z,65.40
2017-09-22T06:55:31.000Z,66.90
2017-09-22T06:57:58.918Z,66.10
2017-09-22T07:00:26.871Z,66.20
2017-09-22T07:02:54.764Z,66.00
2017-09-22T07:05:22.783Z,66.10
2017-09-22T07:07:50.705Z,64.70
2017-09-22T07:10:18.661Z,64.30
2017-09-22T07:12:46.612Z,62.60
2017-09-22T07:15:15.288Z,62.00
2017-09-22T07:17:43.254Z,61.80
2017-09-22T07:20:11.208Z,59.00
2017-09-22T07:22:39.175Z,56.70
2017-09-22T07:25:07.066Z,56.00
2017-09-22T07:27:35.028Z,54.70
2017-09-22T07:30:02.979Z,53.00
2017-09-22T07:32:30.980Z,50.20
2017-09-22T07:34:59.864Z,49.60
2017-09-22T07:37:27.855Z,48.30
2017-09-22T07:39:55.753Z,48.10
2017-09-22T07:42:23.713Z,46.50
2017-09-22T07:44:51.641Z,44.10
2017-09-22T07:47:21.733Z,43.20
2017-09-22T07:49:52.447Z,43.60
2017-09-22T07:52:20.452Z,42.20
2017-09-22T07:54:48.451Z,41.50
2017-09-22T07:57:16.452Z,41.20
2017-09-22T07:59:44.382Z,41.90
2017-09-22T08:02:12.406Z,42.00
2017-09-22T08:04:40.465Z,43.00
2017-09-22T08:07:08.406Z,43.60
2017-09-22T08:09:36.306Z,44.20
2017-09-22T08:12:04.308Z,44.80
2017-09-22T08:14:32.221Z,45.40
2017-09-22T08:17:00.185Z,45.10
2017-09-22T08:19:28.860Z,45.20
2017-09-22T08:21:57.101Z,45.10
2017-09-22T08:24:25.097Z,44.20
2017-09-22T08:26:53.051Z,42.70
2017-09-22T08:29:21.038Z,41.40
2017-09-22T08:31:49.022Z,40.90
2017-09-22T08:34:17.081Z,40.50
2017-09-22T08:36:45.076Z,40.90
2017-09-22T08:39:13.087Z,41.60
2017-09-22T08:41:41.019Z,41.20
2017-09-22T08:44:09.023Z,41.40
2017-09-22T08:46:36.962Z,42.20
2017-09-22T08:49:05.005Z,41.40
2017-09-22T08:51:33.847Z,39.40
2017-09-22T08:54:02.005Z,39.30
2017-09-22T08:56:29.964Z,39.10
2017-09-22T08:58:58.660Z,37.80
2017-09-22T09:01:27.037Z,38.10
2017-09-22T09:03:55.262Z,38.10
2017-09-22T09:06:31.506Z,41.00
2017-09-22T09:08:59.657Z,40.80
2017-09-22T09:11:27.651Z,41.70
2017-09-22T09:13:55.716Z,44.30
2017-09-22T09:16:24.792Z,42.50
2017-09-22T09:18:52.863Z,43.90
2017-09-22T09:21:20.888Z,44.20
2017-09-22T09:23:49.334Z,43.60
2017-09-22T09:26:17.747Z,44.40
2017-09-22T09:28:45.933Z,43.30
2017-09-22T09:31:13.983Z,44.20
2017-09-22T09:33:41.974Z,45.00
2017-09-22T09:36:10.064Z,43.80
2017-09-22T09:38:38.080Z,42.20
2017-09-22T09:41:06.180Z,42.70
2017-09-22T09:43:34.194Z,44.10
2017-09-22T09:46:02.291Z,42.60
2017-09-22T09:48:30.339Z,43.10
2017-09-22T09:50:58.422Z,42.20
2017-09-22T09:53:26.489Z,41.00
2017-09-22T09:55:54.625Z,39.90
2017-09-22T09:58:23.440Z,40.70
2017-09-22T10:00:51.554Z,40.70
2017-09-22T10:03:19.577Z,40.40
2017-09-22T10:05:47.662Z,40.60
2017-09-22T10:08:15.674Z,40.70
2017-09-22T10:10:46.806Z,39.70
2017-09-22T10:13:14.874Z,38.60
2017-09-22T10:15:42.974Z,39.90
2017-09-22T10:21:02.068Z,42.90
2017-09-22T10:23:32.089Z,42.70
2017-09-22T10:26:00.114Z,41.90
2017-09-22T10:28:28.091Z,44.00
2017-09-22T10:30:57.938Z,42.50
2017-09-22T10:33:25.923Z,42.50
2017-09-22T10:35:54.747Z,40.10
2017-09-22T10:38:22.759Z,40.00
2017-09-22T10:40:50.795Z,40.30
2017-09-22T10:43:18.825Z,39.60
2017-09-22T10:45:47.831Z,40.10
2017-09-22T10:48:15.917Z,40.00
2017-09-22T10:50:43.998Z,39.60
2017-09-22T10:53:12.173Z,40.00
2017-09-22T10:55:41.358Z,39.60
2017-09-22T10:58:09.474Z,40.80
2017-09-22T11:00:37.528Z,40.00
2017-09-22T11:03:05.611Z,39.00
2017-09-22T11:05:33.794Z,37.80
2017-09-22T11:08:01.853Z,37.80
2017-09-22T11:10:29.839Z,37.30
2017-09-22T11:12:58.161Z,36.50
2017-09-22T11:15:26.902Z,38.60
2017-09-22T11:17:54.868Z,38.60
2017-09-22T11:20:22.817Z,36.50
2017-09-22T11:22:50.810Z,37.50
2017-09-22T11:25:18.740Z,36.50
2017-09-22T11:27:46.798Z,36.20
2017-09-22T11:30:14.757Z,36.60
2017-09-22T11:32:42.734Z,35.20
2017-09-22T11:35:10.651Z,35.80
2017-09-22T11:37:38.612Z,36.70
2017-09-22T11:40:06.529Z,39.10
2017-09-22T11:42:34.547Z,39.70
2017-09-22T11:45:04.226Z,40.10
2017-09-22T11:47:32.183Z,40.10
2017-09-22T11:50:00.192Z,41.40
2017-09-22T11:52:28.202Z,39.70
2017-09-22T11:54:56.938Z,38.10
2017-09-22T11:57:25.733Z,39.60
2017-09-22T11:59:54.476Z,39.80
2017-09-22T12:02:22.473Z,39.70
2017-09-22T12:04:50.486Z,40.40
2017-09-22T12:07:18.451Z,39.20
2017-09-22T12:09:46.519Z,42.10
2017-09-22T12:12:14.457Z,40.10
2017-09-22T12:14:42.492Z,38.40
2017-09-22T12:17:10.452Z,38.70
2017-09-22T12:19:39.213Z,39.70
2017-09-22T12:22:07.898Z,41.60
2017-09-22T12:24:36.670Z,39.40
2017-09-22T12:27:04.596Z,39.40
2017-09-22T12:29:32.558Z,41.30
2017-09-22T12:32:00.485Z,39.90
2017-09-22T12:34:28.427Z,40.30
2017-09-22T12:36:56.331Z,40.00
2017-09-22T12:39:25.058Z,39.60
2017-09-22T12:41:52.979Z,39.50
2017-09-22T12:44:21.003Z,41.10
2017-09-22T12:46:49.247Z,42.60
2017-09-22T12:49:17.432Z,42.90
2017-09-22T12:51:46.505Z,45.00
2017-09-22T12:54:29.886Z,45.10
2017-09-22T12:56:57.793Z,45.00
2017-09-22T12:59:25.776Z,43.80
2017-09-22T13:01:53.763Z,47.10
2017-09-22T13:04:21.797Z,49.20
2017-09-22T13:06:49.885Z,50.20
2017-09-22T13:09:17.918Z,52.20
2017-09-22T13:11:45.917Z,51.80
2017-09-22T13:14:13.915Z,52.60
2017-09-22T13:16:41.914Z,53.40
2017-09-22T13:19:09.871Z,52.50
2017-09-22T13:21:37.849Z,53.70
2017-09-22T13:24:05.753Z,54.40
2017-09-22T13:26:33.749Z,53.50
2017-09-22T13:29:01.669Z,55.60
2017-09-22T13:31:29.609Z,56.80
2017-09-22T13:34:02.268Z,57.10
2017-09-22T13:36:30.199Z,57.00
2017-09-22T13:38:58.106Z,56.50
2017-09-22T13:41:26.044Z,56.80
2017-09-22T13:43:53.948Z,54.80
2017-09-22T13:46:21.937Z,54.40
2017-09-22T13:48:49.902Z,51.80
2017-09-22T13:51:17.831Z,51.10
2017-09-22T13:53:45.771Z,52.20
2017-09-22T13:56:13.728Z,51.00
2017-09-22T13:58:41.659Z,50.90
2017-09-22T14:01:09.584Z,49.90
2017-09-22T14:03:37.608Z,51.70
2017-09-22T14:06:05.540Z,48.90
2017-09-22T14:08:33.426Z,48.90
2017-09-22T14:11:01.354Z,50.10
2017-09-22T14:13:29.262Z,49.80
2017-09-22T14:15:57.264Z,48.90
2017-09-22T14:18:25.190Z,50.00
2017-09-22T14:20:53.058Z,49.00
2017-09-22T14:23:21.006Z,48.40
2017-09-22T14:25:48.920Z,50.50
2017-09-22T14:28:16.968Z,50.00
2017-09-22T14:30:44.875Z,47.90
2017-09-22T14:33:12.984Z,49.60
2017-09-22T14:35:40.919Z,50.20
2017-09-22T14:38:09.649Z,51.10
2017-09-22T14:40:37.604Z,51.10
2017-09-22T14:43:05.626Z,51.50
2017-09-22T14:45:33.520Z,51.10
2017-09-22T14:48:01.489Z,50.10
2017-09-22T14:50:29.374Z,52.10
2017-09-22T14:52:57.315Z,51.30
2017-09-22T14:55:25.271Z,52.40
2017-09-22T14:57:53.214Z,51.40
2017-09-22T15:00:21.127Z,51.30
2017-09-22T15:02:49.073Z,52.20
2017-09-22T15:05:17.019Z,53.10
2017-09-22T15:07:44.972Z,53.60
2017-09-22T15:10:12.848Z,52.70
2017-09-22T15:12:40.771Z,52.30
2017-09-22T15:15:08.657Z,53.50
2017-09-22T15:17:37.365Z,50.60
2017-09-22T15:20:05.251Z,50.70
2017-09-22T15:22:33.128Z,51.10
2017-09-22T15:25:03.128Z,53.60
2017-09-22T15:27:31.024Z,54.70
2017-09-22T15:29:58.980Z,57.80
2017-09-22T15:32:26.865Z,57.40
2017-09-22T15:34:54.811Z,56.50
2017-09-22T15:37:22.717Z,53.80
2017-09-22T15:39:50.670Z,55.90
2017-09-22T15:42:18.642Z,55.30
2017-09-22T15:44:46.585Z,57.40
2017-09-22T15:47:14.448Z,58.30
2017-09-22T15:49:42.386Z,58.60
2017-09-22T15:52:10.335Z,59.80
2017-09-22T15:54:42.300Z,61.20
2017-09-22T15:57:10.248Z,60.90
2017-09-22T15:59:38.220Z,62.40
2017-09-22T16:02:06.118Z,62.90
2017-09-22T16:04:34.060Z,62.80
2017-09-22T16:07:02.370Z,62.90
2017-09-22T16:09:31.072Z,60.70
2017-09-22T16:11:59.039Z,60.70
2017-09-22T16:14:27.028Z,59.40
2017-09-22T16:16:55.000Z,61.50
2017-09-22T16:19:22.958Z,67.10
2017-09-22T16:21:50.865Z,65.30
2017-09-22T16:24:18.823Z,64.90
2017-09-22T16:26:46.778Z,65.20
2017-09-22T16:29:14.756Z,65.50
2017-09-22T16:31:42.653Z,66.40
2017-09-22T16:34:10.951Z,67.00
2017-09-22T16:36:38.877Z,68.30
2017-09-22T16:39:06.771Z,68.10
2017-09-22T16:41:34.709Z,68.50
2017-09-22T16:44:02.628Z,68.40
2017-09-22T16:46:30.565Z,68.60
2017-09-22T16:48:58.429Z,68.90
2017-09-22T16:51:26.372Z,69.20
2017-09-22T16:53:54.279Z,69.80
2017-09-22T16:56:22.247Z,69.90
2017-09-22T16:58:50.162Z,70.30
2017-09-22T17:01:18.286Z,70.80
2017-09-22T17:03:46.202Z,70.10
2017-09-22T17:06:14.179Z,70.40
2017-09-22T17:08:42.126Z,70.60
2017-09-22T17:11:10.134Z,71.40
2017-09-22T17:13:38.344Z,71.30
2017-09-22T17:16:06.334Z,71.10
2017-09-22T17:18:34.265Z,71.80
2017-09-22T17:21:02.285Z,71.70
2017-09-22T17:23:30.293Z,71.70
2017-09-22T17:25:58.341Z,72.10
2017-09-22T17:28:26.339Z,72.20
2017-09-22T17:30:54.314Z,72.90
2017-09-22T17:33:22.231Z,73.30
2017-09-22T17:35:50.111Z,74.00
2017-09-22T17:38:18.043Z,74.70
2017-09-22T17:40:45.937Z,74.90
2017-09-22T17:43:13.967Z,75.10
2017-09-22T17:45:41.868Z,75.40
2017-09-22T17:48:09.792Z,75.30
2017-09-22T17:50:37.687Z,75.40
2017-09-22T17:53:05.738Z,76.00
2017-09-22T17:55:33.655Z,76.00
2017-09-22T17:58:01.634Z,75.90
2017-09-22T18:00:30.317Z,76.40
2017-09-22T18:02:58.283Z,76.30
2017-09-22T18:05:26.297Z,76.30
2017-09-22T18:07:54.444Z,77.00
2017-09-22T18:10:22.379Z,76.90
2017-09-22T18:12:50.357Z,76.90
2017-09-22T18:15:18.361Z,77.10
2017-09-22T18:17:47.115Z,76.70
2017-09-22T18:20:15.104Z,76.60
2017-09-22T18:22:43.071Z,77.60
2017-09-22T18:25:11.759Z,78.20
2017-09-22T18:27:40.481Z,78.10
2017-09-22T18:30:14.624Z,78.00
2017-09-22T18:32:42.585Z,78.30
2017-09-22T18:35:10.519Z,78.00
2017-09-22T18:37:38.580Z,78.80
2017-09-22T18:40:06.573Z,78.80
2017-09-22T18:42:34.621Z,78.50
2017-09-22T18:45:03.446Z,77.80
2017-09-22T18:47:31.409Z,78.60
2017-09-22T18:49:59.578Z,79.00
2017-09-22T18:52:27.579Z,79.00
2017-09-22T18:54:56.745Z,79.00
2017-09-22T18:57:24.696Z,78.20
2017-09-22T18:59:53.508Z,78.60
2017-09-22T19:02:21.838Z,78.50
2017-09-22T19:04:49.953Z,78.40
2017-09-22T19:07:22.531Z,78.00
2017-09-22T19:09:50.638Z,77.70
2017-09-22T19:12:18.738Z,79.10
2017-09-22T19:14:46.881Z,78.60
2017-09-22T19:17:14.847Z,78.70
2017-09-22T19:19:42.906Z,79.60
2017-09-22T19:22:10.833Z,78.60
2017-09-22T19:24:38.811Z,78.70
2017-09-22T19:27:06.725Z,80.00
2017-09-22T19:29:34.694Z,79.40
2017-09-22T19:32:02.679Z,78.80
2017-09-22T19:34:30.713Z,78.30
2017-09-22T19:36:59.005Z,79.80
2017-09-22T19:39:27.064Z,78.90
2017-09-22T19:41:55.034Z,78.70
2017-09-22T19:44:23.705Z,79.10
2017-09-22T19:46:52.000Z,78.90
2017-09-22T19:49:20.638Z,79.30
2017-09-22T19:51:49.166Z,79.40
2017-09-22T19:54:18.074Z,79.20
2017-09-22T19:56:46.201Z,79.00
2017-09-22T19:59:14.307Z,79.20
2017-09-22T20:01:42.450Z,78.40
2017-09-22T20:04:10.779Z,79.40
2017-09-22T20:06:42.496Z,80.10
2017-09-22T20:09:11.524Z,79.90
2017-09-22T20:11:39.759Z,80.30
2017-09-22T20:14:07.843Z,80.10
2017-09-22T20:16:36.582Z,80.00
2017-09-22T20:19:04.621Z,80.00
2017-09-22T20:21:33.339Z,79.40
2017-09-22T20:24:01.279Z,79.40
2017-09-22T20:26:29.217Z,79.90
2017-09-22T20:28:57.361Z,80.30
2017-09-22T20:31:25.458Z,79.40
2017-09-22T20:33:53.342Z,79.60
2017-09-22T20:36:22.062Z,79.40
2017-09-22T20:38:49.989Z,79.40
2017-09-22T20:41:17.944Z,79.80
2017-09-22T20:43:47.690Z,80.10
2017-09-22T20:46:17.175Z,80.10
2017-09-22T20:48:45.073Z,80.60
2017-09-22T20:51:13.226Z,80.50
2017-09-22T20:53:41.439Z,79.90
2017-09-22T20:56:09.432Z,80.40
2017-09-22T20:58:37.373Z,79.90
2017-09-22T21:01:05.356Z,79.20
2017-09-22T21:03:37.028Z,79.30
2017-09-22T21:06:05.037Z,79.30
2017-09-22T21:08:33.020Z,79.00
2017-09-22T21:11:00.953Z,78.80
2017-09-22T21:13:29.378Z,79.00
2017-09-22T21:15:57.296Z,80.00
2017-09-22T21:18:25.272Z,80.50
2017-09-22T21:20:53.180Z,80.00
2017-09-22T21:23:21.947Z,80.20
2017-09-22T21:25:49.878Z,80.10
2017-09-22T21:28:17.841Z,80.50
2017-09-22T21:30:45.757Z,80.00
2017-09-22T21:33:15.348Z,79.80
2017-09-22T21:35:43.367Z,79.60
2017-09-22T21:38:11.337Z,79.40
2017-09-22T21:40:39.247Z,79.30
2017-09-22T21:43:07.207Z,79.50
2017-09-22T21:45:35.212Z,79.50
2017-09-22T21:48:03.187Z,79.80
2017-09-22T21:50:31.105Z,79.60
2017-09-22T21:52:59.108Z,79.30
2017-09-22T21:55:27.025Z,79.50
2017-09-22T21:57:55.024Z,80.00
2017-09-22T22:00:22.937Z,80.00
2017-09-22T22:02:50.930Z,80.30
2017-09-22T22:05:29.511Z,80.90
2017-09-22T22:07:57.465Z,81.50
2017-09-22T22:10:25.374Z,81.80
2017-09-22T22:12:53.753Z,82.00
2017-09-22T22:15:21.729Z,81.70
2017-09-22T22:17:49.725Z,81.30
2017-09-22T22:20:17.630Z,81.10
2017-09-22T22:22:45.547Z,81.90
2017-09-22T22:25:14.485Z,81.70
2017-09-22T22:27:42.732Z,81.70
2017-09-22T22:30:10.712Z,81.90
2017-09-22T22:32:38.630Z,82.00
2017-09-22T22:35:06.577Z,82.00
2017-09-22T22:37:35.656Z,82.00
2017-09-22T22:40:03.636Z,82.00
2017-09-22T22:42:31.571Z,82.10
2017-09-22T22:44:59.579Z,81.80
2017-09-22T22:47:27.501Z,81.40
2017-09-22T22:49:55.473Z,81.10
2017-09-22T22:52:23.392Z,81.00
2017-09-22T22:54:59.594Z,81.00
2017-09-22T22:57:27.498Z,81.00
2017-09-22T22:59:55.461Z,81.20
2017-09-22T23:02:24.303Z,81.60
2017-09-22T23:04:52.257Z,81.30
2017-09-22T23:07:20.190Z,81.20
2017-09-22T23:09:48.138Z,80.70
2017-09-22T23:12:16.022Z,80.60
2017-09-22T23:14:43.976Z,81.00
2017-09-22T23:17:11.893Z,81.10
2017-09-22T23:19:39.870Z,80.40
2017-09-22T23:22:07.834Z,80.30
2017-09-22T23:24:35.800Z,80.00
2017-09-22T23:27:03.822Z,80.40
2017-09-22T23:29:31.725Z,80.60
2017-09-22T23:31:59.670Z,80.30
2017-09-22T23:34:27.632Z,80.00
2017-09-22T23:36:55.584Z,80.60
2017-09-22T23:39:23.488Z,81.50
2017-09-22T23:41:51.458Z,81.70
2017-09-22T23:44:19.512Z,81.70
2017-09-22T23:46:48.220Z,81.80
2017-09-22T23:49:16.118Z,81.80
2017-09-22T23:51:44.106Z,82.10
2017-09-22T23:54:12.020Z,81.20
2017-09-22T23:56:39.972Z,81.10
2017-09-22T23:59:07.892Z,81.20
